Time;durP1;ratioP1;P1;durP2;ratioP2;P2;SDS_P1;SDS_P2;PMS_P1;PMS_P2;Temp;Humidity;BMP_temperature;BMP_pressure;BME280_temperature;BME280_humidity;BME280_pressure;Samples;Min_cycle;Max_cycle;Signal;HPM_P1;HPM_P2
2022/11/22 00:00:09;;;;;;;2.90;2.35;;;8.00;84.10;;;;;;5028461;28;20171;-56
2022/11/22 00:02:35;;;;;;;2.90;2.60;;;8.00;84.00;;;;;;5034003;28;20048;-57
2022/11/22 00:05:00;;;;;;;2.72;2.50;;;7.90;84.10;;;;;;5033171;28;20469;-57
2022/11/22 00:07:26;;;;;;;2.60;2.35;;;7.90;84.00;;;;;;5036852;28;20036;-56
2022/11/22 00:09:52;;;;;;;2.80;2.60;;;7.80;84.10;;;;;;5029759;28;20034;-57
2022/11/22 00:12:17;;;;;;;3.55;2.50;;;7.80;84.10;;;;;;5037116;28;20469;-56
2022/11/22 00:14:43;;;;;;;2.40;2.20;;;7.80;84.00;;;;;;5038323;28;20051;-56
2022/11/22 00:17:08;;;;;;;3.72;2.58;;;7.80;83.90;;;;;;5039861;28;20033;-56
2022/11/22 00:19:34;;;;;;;2.80;2.33;;;7.80;83.70;;;;;;5031949;28;20029;-56
2022/11/22 00:22:00;;;;;;;4.40;3.10;;;7.80;83.60;;;;;;5035928;28;20688;-58
2022/11/22 00:24:26;;;;;;;2.78;2.28;;;7.80;83.40;;;;;;5034786;28;20033;-56
2022/11/22 00:26:52;;;;;;;2.53;2.33;;;7.70;83.30;;;;;;5038388;28;20037;-55
2022/11/22 00:29:18;;;;;;;3.60;2.90;;;7.70;83.20;;;;;;5030541;28;20511;-56
2022/11/22 00:31:43;;;;;;;4.30;3.40;;;7.70;83.00;;;;;;5029196;28;20037;-57
2022/11/22 00:34:09;;;;;;;4.45;3.22;;;7.70;83.00;;;;;;5035191;28;20044;-57
2022/11/22 00:36:34;;;;;;;3.13;2.83;;;7.60;82.80;;;;;;5033290;28;20028;-56
2022/11/22 00:39:00;;;;;;;4.00;3.13;;;7.60;83.00;;;;;;5030367;28;20033;-56
2022/11/22 00:41:26;;;;;;;3.13;2.83;;;7.50;82.90;;;;;;5033996;28;20114;-56
2022/11/22 00:43:51;;;;;;;3.60;2.85;;;7.50;82.70;;;;;;5033774;28;20373;-56
2022/11/22 00:46:17;;;;;;;3.20;2.90;;;7.50;82.60;;;;;;5031353;28;20033;-56
2022/11/22 00:48:42;;;;;;;2.65;2.45;;;7.50;82.70;;;;;;5034184;28;20107;-56
2022/11/22 00:51:08;;;;;;;2.83;2.55;;;7.50;82.80;;;;;;5038307;28;20099;-56
2022/11/22 00:53:34;;;;;;;3.13;2.65;;;7.50;82.60;;;;;;5033818;28;20022;-56
2022/11/22 00:55:59;;;;;;;2.75;2.53;;;7.50;82.30;;;;;;5032309;28;20037;-56
2022/11/22 00:58:25;;;;;;;2.35;2.15;;;7.50;82.10;;;;;;5030470;28;20495;-56
2022/11/22 01:00:51;;;;;;;2.60;2.40;;;7.40;81.90;;;;;;5034259;28;20045;-57
2022/11/22 01:03:16;;;;;;;2.35;2.15;;;7.40;81.80;;;;;;5037506;28;20472;-57
2022/11/22 01:05:42;;;;;;;2.42;2.22;;;7.40;81.70;;;;;;5041320;28;20037;-56
2022/11/22 01:08:08;;;;;;;2.05;1.95;;;7.40;81.70;;;;;;5038198;28;20489;-56
2022/11/22 01:10:37;;;;;;;2.75;2.45;;;7.30;81.60;;;;;;5033871;28;20503;-56
2022/11/22 01:13:04;;;;;;;2.95;2.65;;;7.30;81.50;;;;;;5036134;28;20025;-57
2022/11/22 01:15:29;;;;;;;2.90;2.60;;;7.30;81.20;;;;;;5034503;28;20029;-58
2022/11/22 01:17:55;;;;;;;3.33;2.85;;;7.30;81.20;;;;;;5040014;28;20025;-57
2022/11/22 01:20:21;;;;;;;2.80;2.50;;;7.30;81.10;;;;;;5040907;28;20502;-56
2022/11/22 01:22:47;;;;;;;2.60;2.40;;;7.20;81.70;;;;;;5034298;28;20434;-58
2022/11/22 01:25:13;;;;;;;2.35;2.17;;;7.20;81.10;;;;;;5048469;28;20112;-56
2022/11/22 01:27:38;;;;;;;2.67;2.47;;;7.20;81.20;;;;;;5034028;28;20029;-56
2022/11/22 01:30:05;;;;;;;2.60;2.40;;;7.10;81.20;;;;;;5020725;28;20031;-56
2022/11/22 01:32:30;;;;;;;2.40;2.20;;;7.10;81.10;;;;;;5031111;28;20119;-57
2022/11/22 01:34:56;;;;;;;2.47;2.28;;;7.10;81.10;;;;;;5035291;28;20135;-56
2022/11/22 01:37:21;;;;;;;2.67;2.47;;;7.10;81.10;;;;;;5036464;28;20205;-56
2022/11/22 01:39:47;;;;;;;3.00;2.70;;;7.10;81.00;;;;;;5030700;28;20493;-56
2022/11/22 01:42:13;;;;;;;3.08;2.55;;;7.10;80.80;;;;;;5027531;28;20485;-57
2022/11/22 01:44:40;;;;;;;3.03;2.60;;;7.10;80.70;;;;;;5036159;28;20096;-57
2022/11/22 01:47:10;;;;;;;2.60;2.40;;;7.10;80.60;;;;;;5040226;28;20029;-57
2022/11/22 01:49:56;;;;;;;3.00;2.70;;;7.10;80.70;;;;;;5025480;28;20032;-56
2022/11/22 01:52:25;;;;;;;2.75;2.55;;;7.10;80.50;;;;;;5038428;28;20631;-55
2022/11/22 01:54:58;;;;;;;3.97;2.78;;;7.00;80.50;;;;;;5033420;28;20021;-56
2022/11/22 01:57:29;;;;;;;3.08;2.80;;;7.00;80.50;;;;;;5030444;28;20038;-56
2022/11/22 02:00:08;;;;;;;3.47;3.10;;;6.90;80.40;;;;;;5032995;28;20349;-56
2022/11/22 02:02:34;;;;;;;3.03;2.72;;;6.90;80.20;;;;;;5026813;28;20029;-57
2022/11/22 02:05:07;;;;;;;3.40;2.92;;;6.80;80.40;;;;;;5030339;28;20377;-56
2022/11/22 02:08:17;;;;;;;3.17;2.88;;;6.70;80.50;;;;;;5031893;28;20075;-57
2022/11/22 02:10:45;;;;;;;3.15;2.75;;;6.60;80.40;;;;;;5028653;28;20060;-57
2022/11/22 02:13:13;;;;;;;4.28;2.92;;;6.60;80.80;;;;;;5031332;28;20029;-56
2022/11/22 02:15:40;;;;;;;3.60;2.90;;;6.60;80.70;;;;;;5038565;28;20048;-56
2022/11/22 02:18:06;;;;;;;3.65;3.20;;;6.60;80.60;;;;;;5037044;28;20480;-56
2022/11/22 02:20:31;;;;;;;3.15;2.85;;;6.60;80.40;;;;;;5029852;28;20162;-56
2022/11/22 02:23:02;;;;;;;2.90;2.60;;;6.60;81.30;;;;;;5034353;28;20115;-56
2022/11/22 02:25:40;;;;;;;3.37;2.90;;;6.60;81.00;;;;;;5040610;28;20037;-56
2022/11/22 02:28:11;;;;;;;3.05;2.85;;;6.60;81.00;;;;;;5029967;28;20033;-57
2022/11/22 02:30:37;;;;;;;2.63;2.42;;;6.60;80.90;;;;;;5033917;28;20030;-56
2022/11/22 02:33:03;;;;;;;2.60;2.40;;;6.60;80.70;;;;;;5030691;28;20116;-56
2022/11/22 02:35:29;;;;;;;2.20;2.10;;;6.60;80.60;;;;;;5032660;28;20148;-57
2022/11/22 02:38:04;;;;;;;2.85;2.60;;;6.70;80.80;;;;;;5035334;28;20040;-56
2022/11/22 02:40:47;;;;;;;2.75;2.50;;;6.70;80.70;;;;;;5024906;28;20022;-58
2022/11/22 02:43:19;;;;;;;2.70;2.50;;;6.70;80.60;;;;;;5026201;28;20033;-57
2022/11/22 02:45:45;;;;;;;2.08;1.98;;;6.70;80.60;;;;;;5036780;28;20055;-56
2022/11/22 02:48:14;;;;;;;2.90;2.65;;;6.80;80.60;;;;;;5039020;28;20021;-57
2022/11/22 02:50:39;;;;;;;2.72;2.53;;;6.80;80.40;;;;;;5032568;28;20567;-57
2022/11/22 02:53:06;;;;;;;2.40;2.20;;;6.80;80.30;;;;;;5034305;28;20102;-57
2022/11/22 02:55:32;;;;;;;2.38;2.20;;;6.90;80.20;;;;;;5037039;28;20021;-58
2022/11/22 02:57:58;;;;;;;2.75;2.55;;;6.90;80.00;;;;;;5035559;28;20205;-57
2022/11/22 03:00:24;;;;;;;2.70;2.50;;;6.90;79.80;;;;;;5026233;28;20108;-61
2022/11/22 03:02:50;;;;;;;2.63;2.42;;;7.00;80.00;;;;;;5032625;28;20544;-62
2022/11/22 03:05:16;;;;;;;3.53;3.03;;;7.00;79.80;;;;;;5029776;28;20033;-60
2022/11/22 03:07:41;;;;;;;2.83;2.60;;;7.00;79.30;;;;;;5030201;28;20041;-61
2022/11/22 03:10:07;;;;;;;2.78;2.58;;;7.00;79.20;;;;;;5025566;28;20037;-61
2022/11/22 03:12:33;;;;;;;3.00;2.72;;;6.90;79.60;;;;;;5029811;28;20373;-61
2022/11/22 03:14:59;;;;;;;3.05;2.75;;;6.80;79.60;;;;;;5034201;28;20050;-61
2022/11/22 03:17:24;;;;;;;2.60;2.40;;;6.90;79.40;;;;;;5029679;28;20026;-60
2022/11/22 03:19:50;;;;;;;2.55;2.35;;;6.80;79.70;;;;;;5031578;28;20428;-61
2022/11/22 03:22:15;;;;;;;2.88;2.67;;;6.80;79.80;;;;;;5028026;28;20026;-60
2022/11/22 03:24:41;;;;;;;2.78;2.53;;;6.80;79.70;;;;;;5030546;28;20036;-59
2022/11/22 03:27:07;;;;;;;2.90;2.70;;;6.80;79.50;;;;;;5034926;28;20061;-61
2022/11/22 03:29:32;;;;;;;3.17;2.88;;;6.80;79.50;;;;;;5024408;28;20104;-59
2022/11/22 03:31:58;;;;;;;3.20;2.85;;;6.80;79.30;;;;;;5030568;28;20092;-61
2022/11/22 03:34:24;;;;;;;2.70;2.50;;;6.80;79.30;;;;;;5037698;28;20021;-61
2022/11/22 03:36:49;;;;;;;2.60;2.40;;;6.80;79.20;;;;;;5032247;28;20116;-61
2022/11/22 03:39:15;;;;;;;3.47;3.15;;;6.90;79.20;;;;;;5029985;28;20032;-60
2022/11/22 03:41:40;;;;;;;3.53;3.22;;;6.90;78.70;;;;;;5029548;28;20036;-59
2022/11/22 03:44:06;;;;;;;3.60;3.10;;;6.80;78.20;;;;;;5022378;28;20041;-60
2022/11/22 03:46:32;;;;;;;3.75;3.35;;;6.70;78.30;;;;;;5029984;28;20080;-59
2022/11/22 03:48:57;;;;;;;4.28;3.45;;;6.60;78.50;;;;;;5021917;28;20117;-60
2022/11/22 03:51:23;;;;;;;3.85;3.35;;;6.50;78.20;;;;;;5029434;28;20106;-59
2022/11/22 03:53:48;;;;;;;4.00;3.58;;;6.40;78.00;;;;;;5036286;28;20037;-59
2022/11/22 03:56:14;;;;;;;4.75;3.92;;;6.20;78.30;;;;;;5038862;28;20468;-61
2022/11/22 03:58:40;;;;;;;3.85;3.47;;;6.10;78.20;;;;;;5041792;28;20060;-61
2022/11/22 04:01:05;;;;;;;3.88;3.30;;;6.00;78.70;;;;;;5032795;28;20048;-61
2022/11/22 04:03:31;;;;;;;3.97;3.38;;;5.80;78.90;;;;;;5035148;28;20056;-61
2022/11/22 04:05:57;;;;;;;3.92;3.42;;;5.80;79.10;;;;;;5044857;28;20507;-61
2022/11/22 04:08:22;;;;;;;5.25;3.70;;;5.70;78.60;;;;;;5037819;28;20112;-61
2022/11/22 04:10:49;;;;;;;4.78;3.80;;;5.60;78.50;;;;;;5031815;28;20029;-61
2022/11/22 04:13:15;;;;;;;4.07;3.28;;;5.50;78.50;;;;;;5032449;28;20172;-60
2022/11/22 04:15:40;;;;;;;3.70;3.22;;;5.40;78.50;;;;;;5040099;28;20108;-61
2022/11/22 04:18:09;;;;;;;3.20;2.90;;;5.40;78.60;;;;;;5032354;28;20026;-60
2022/11/22 04:23:21;;;;;;;3.45;3.17;;;5.30;79.10;;;;;;5032656;28;20033;-61
2022/11/22 04:25:49;;;;;;;3.95;3.55;;;5.30;78.30;;;;;;5036825;28;20032;-59
2022/11/22 04:28:18;;;;;;;3.75;3.35;;;5.30;78.50;;;;;;5021091;28;20083;-59
2022/11/22 04:33:28;;;;;;;4.20;3.53;;;5.10;78.70;;;;;;5037753;28;20113;-60
2022/11/22 04:35:54;;;;;;;3.33;3.03;;;5.10;78.20;;;;;;5030720;28;20029;-60
2022/11/22 04:38:20;;;;;;;3.70;3.30;;;5.10;78.30;;;;;;5023373;28;20550;-61
2022/11/22 04:40:46;;;;;;;4.00;3.60;;;5.10;78.30;;;;;;5038604;28;20072;-60
2022/11/22 04:46:03;;;;;;;3.28;2.97;;;5.10;78.30;;;;;;5033614;28;20091;-61
2022/11/22 04:48:29;;;;;;;3.30;3.00;;;5.00;78.40;;;;;;5028343;28;20029;-62
2022/11/22 04:53:38;;;;;;;3.28;2.97;;;5.00;77.80;;;;;;5035062;28;20443;-59
2022/11/22 04:56:04;;;;;;;3.20;2.90;;;4.90;77.80;;;;;;5031416;28;20104;-60
2022/11/22 04:58:30;;;;;;;2.90;2.70;;;4.90;77.60;;;;;;5032198;28;20037;-61
2022/11/22 05:00:55;;;;;;;2.85;2.65;;;4.80;77.30;;;;;;5031050;28;20034;-62
2022/11/22 05:03:21;;;;;;;3.08;2.78;;;4.70;77.10;;;;;;5031387;28;20064;-60
2022/11/22 05:05:47;;;;;;;3.03;2.72;;;4.60;77.30;;;;;;5037855;28;20036;-61
2022/11/22 05:08:13;;;;;;;3.35;3.03;;;4.50;77.60;;;;;;5030252;28;20059;-60
2022/11/22 05:13:39;;;;;;;3.22;2.97;;;4.50;78.10;;;;;;5022845;28;20529;-59
2022/11/22 05:16:11;;;;;;;2.88;2.67;;;4.50;78.40;;;;;;5030788;28;20033;-61
2022/11/22 05:18:37;;;;;;;3.08;2.78;;;4.50;78.30;;;;;;5025471;28;20112;-61
2022/11/22 05:21:11;;;;;;;2.50;2.30;;;4.50;79.10;;;;;;5034099;28;20041;-60
2022/11/22 05:23:55;;;;;;;2.58;2.38;;;4.60;78.80;;;;;;5038754;28;20036;-61
2022/11/22 05:26:30;;;;;;;3.20;2.90;;;4.70;79.60;;;;;;5046779;28;20543;-61
2022/11/22 05:28:59;;;;;;;3.67;3.20;;;4.80;78.60;;;;;;5025575;28;20041;-61
2022/11/22 05:31:27;;;;;;;3.85;3.10;;;4.80;78.00;;;;;;5026353;28;20479;-61
2022/11/22 05:33:56;;;;;;;4.90;3.58;;;4.80;77.80;;;;;;5026289;28;20064;-59
2022/11/22 05:36:23;;;;;;;3.90;3.35;;;4.80;77.50;;;;;;5044572;28;20025;-61
2022/11/22 05:38:52;;;;;;;3.47;3.17;;;4.70;77.70;;;;;;5051614;28;20399;-60
2022/11/22 05:41:19;;;;;;;3.75;3.35;;;4.60;77.80;;;;;;5033297;28;20029;-60
2022/11/22 05:43:44;;;;;;;3.45;3.10;;;4.50;77.80;;;;;;5032624;28;20036;-61
2022/11/22 05:46:14;;;;;;;3.60;3.30;;;4.50;77.90;;;;;;5049334;28;20041;-61
2022/11/22 05:48:47;;;;;;;3.83;3.30;;;4.50;78.20;;;;;;5036311;28;20453;-59
2022/11/22 05:51:16;;;;;;;3.72;3.38;;;4.50;78.30;;;;;;5029580;28;20460;-59
2022/11/22 05:53:45;;;;;;;3.97;3.55;;;4.50;78.10;;;;;;5028242;28;20053;-60
2022/11/22 05:56:22;;;;;;;3.92;3.53;;;4.50;78.10;;;;;;5028542;28;20025;-61
2022/11/22 05:58:55;;;;;;;3.88;3.47;;;4.50;78.00;;;;;;5050775;28;20025;-61
2022/11/22 06:01:23;;;;;;;4.22;3.65;;;4.50;78.00;;;;;;5023648;28;20113;-60
2022/11/22 06:03:49;;;;;;;4.65;3.78;;;4.50;78.20;;;;;;5030415;28;20488;-59
2022/11/22 06:06:15;;;;;;;4.00;3.70;;;4.50;78.00;;;;;;5028817;28;20449;-61
2022/11/22 06:08:45;;;;;;;3.80;3.40;;;4.50;78.00;;;;;;5039385;28;20075;-60
2022/11/22 06:11:22;;;;;;;4.88;4.00;;;4.50;78.00;;;;;;5027202;28;20022;-61
2022/11/22 06:13:53;;;;;;;4.20;3.70;;;4.40;78.00;;;;;;5020875;28;20160;-60
2022/11/22 06:16:31;;;;;;;3.63;3.33;;;4.40;78.10;;;;;;5029607;28;20025;-61
2022/11/22 06:18:59;;;;;;;5.28;4.03;;;4.40;78.50;;;;;;5025031;28;20397;-61
2022/11/22 06:21:27;;;;;;;5.07;4.30;;;4.50;78.50;;;;;;5023410;28;20030;-58
2022/11/22 06:23:54;;;;;;;4.88;4.15;;;4.50;78.50;;;;;;5033115;28;20061;-61
2022/11/22 06:26:23;;;;;;;4.50;3.95;;;4.50;78.40;;;;;;5027054;28;20033;-61
2022/11/22 06:28:49;;;;;;;4.10;3.70;;;4.60;78.60;;;;;;5023368;28;20094;-60
2022/11/22 06:31:21;;;;;;;4.47;4.07;;;4.60;78.70;;;;;;5023928;28;20107;-59
2022/11/22 06:33:55;;;;;;;5.20;4.40;;;4.70;78.50;;;;;;5018277;28;20029;-60
2022/11/22 06:36:27;;;;;;;5.10;4.30;;;4.80;78.00;;;;;;5019837;28;20075;-60
2022/11/22 06:38:53;;;;;;;5.82;4.38;;;4.70;77.80;;;;;;5023077;28;20029;-60
2022/11/22 06:41:21;;;;;;;5.40;4.40;;;4.70;77.70;;;;;;5031013;28;20087;-59
2022/11/22 06:43:48;;;;;;;5.00;4.35;;;4.70;77.80;;;;;;5013649;28;20030;-59
2022/11/22 06:46:16;;;;;;;6.03;5.13;;;4.60;77.90;;;;;;5025886;28;20116;-60
2022/11/22 06:48:42;;;;;;;5.82;4.40;;;4.60;77.70;;;;;;5018022;28;20022;-60
2022/11/22 06:51:12;;;;;;;5.57;4.63;;;4.60;77.80;;;;;;5018728;28;20049;-60
2022/11/22 06:53:38;;;;;;;4.93;4.25;;;4.60;77.90;;;;;;5025303;28;20028;-59
2022/11/22 06:56:14;;;;;;;4.72;4.05;;;4.60;78.10;;;;;;5031077;28;20432;-61
2022/11/22 06:58:40;;;;;;;5.75;4.65;;;4.60;78.00;;;;;;5019850;28;20029;-60
2022/11/22 07:01:15;;;;;;;5.75;4.63;;;4.60;78.00;;;;;;5020134;28;20488;-60
2022/11/22 07:03:41;;;;;;;6.85;5.70;;;4.60;78.00;;;;;;5024771;28;20395;-60
2022/11/22 07:06:09;;;;;;;6.13;5.03;;;4.60;77.80;;;;;;5023631;28;20045;-61
2022/11/22 07:08:35;;;;;;;6.00;4.97;;;4.50;77.80;;;;;;5019908;28;20044;-60
2022/11/22 07:11:07;;;;;;;5.35;4.63;;;4.60;78.20;;;;;;5022310;28;20048;-60
2022/11/22 07:13:33;;;;;;;5.50;4.68;;;4.60;78.00;;;;;;5024848;28;20022;-59
2022/11/22 07:16:00;;;;;;;5.50;4.68;;;4.60;77.50;;;;;;5012423;28;20038;-59
2022/11/22 07:18:26;;;;;;;5.65;5.05;;;4.50;77.50;;;;;;5010785;28;20029;-58
2022/11/22 07:20:52;;;;;;;6.70;5.72;;;4.50;77.20;;;;;;5005842;28;20037;-60
2022/11/22 07:23:18;;;;;;;5.93;4.95;;;4.40;77.20;;;;;;5006744;28;20493;-59
2022/11/22 07:25:45;;;;;;;6.80;5.63;;;4.40;77.40;;;;;;5019512;28;20813;-60
2022/11/22 07:28:12;;;;;;;6.13;5.07;;;4.40;77.70;;;;;;5014680;28;20025;-59
2022/11/22 07:30:38;;;;;;;5.45;4.85;;;4.40;77.70;;;;;;5013735;28;20042;-58
2022/11/22 07:33:04;;;;;;;6.32;4.80;;;4.40;77.70;;;;;;5020984;28;20029;-59
2022/11/22 07:35:29;;;;;;;5.90;4.97;;;4.40;77.70;;;;;;5023156;28;20798;-58
2022/11/22 07:37:55;;;;;;;5.90;5.10;;;4.30;77.70;;;;;;5014075;28;20462;-59
2022/11/22 07:40:21;;;;;;;6.85;5.57;;;4.30;77.60;;;;;;5019440;28;20401;-58
2022/11/22 07:42:46;;;;;;;6.85;5.75;;;4.30;77.70;;;;;;5012189;28;20030;-59
2022/11/22 07:45:12;;;;;;;6.97;5.85;;;4.30;77.60;;;;;;5015047;28;20037;-57
2022/11/22 07:47:37;;;;;;;6.10;5.35;;;4.30;77.60;;;;;;5018543;28;20059;-60
2022/11/22 07:50:04;;;;;;;7.43;5.85;;;4.30;77.50;;;;;;5015828;28;20059;-57
2022/11/22 07:52:29;;;;;;;6.53;5.50;;;4.30;77.60;;;;;;5013700;28;20037;-60
2022/11/22 07:54:55;;;;;;;6.20;5.60;;;4.30;77.70;;;;;;5014937;28;20021;-59
2022/11/22 07:57:21;;;;;;;6.60;5.63;;;4.30;77.70;;;;;;5016772;28;20393;-58
2022/11/22 07:59:46;;;;;;;5.60;5.07;;;4.30;77.60;;;;;;5018012;28;20029;-60
2022/11/22 08:02:12;;;;;;;6.07;5.47;;;4.30;77.50;;;;;;5015250;28;20041;-61
2022/11/22 08:04:38;;;;;;;6.28;5.25;;;4.30;77.40;;;;;;5012347;28;20094;-60
2022/11/22 08:07:03;;;;;;;6.45;5.28;;;4.20;77.10;;;;;;5012366;28;20155;-60
2022/11/22 08:09:29;;;;;;;7.35;5.82;;;4.20;77.10;;;;;;5009907;28;20037;-60
2022/11/22 08:11:55;;;;;;;7.10;5.57;;;4.20;77.40;;;;;;5011689;28;20029;-58
2022/11/22 08:14:21;;;;;;;5.72;5.13;;;4.20;77.60;;;;;;5010507;28;20434;-61
2022/11/22 08:16:47;;;;;;;6.57;5.57;;;4.20;77.60;;;;;;5010957;28;20116;-61
2022/11/22 08:19:16;;;;;;;6.47;4.85;;;4.30;77.70;;;;;;5013297;28;20064;-60
2022/11/22 08:21:45;;;;;;;5.03;4.18;;;4.30;77.50;;;;;;5010801;28;21742;-61
2022/11/22 08:24:11;;;;;;;6.50;5.40;;;4.40;77.80;;;;;;5015393;28;20057;-60
2022/11/22 08:26:37;;;;;;;7.07;6.07;;;4.50;77.60;;;;;;5011856;28;20128;-61
2022/11/22 08:29:04;;;;;;;6.53;5.22;;;4.50;77.90;;;;;;5017282;28;20083;-61
2022/11/22 08:31:30;;;;;;;7.05;5.65;;;4.50;76.90;;;;;;5010000;28;20156;-58
2022/11/22 08:33:56;;;;;;;5.70;4.95;;;4.50;76.80;;;;;;5025409;28;20022;-59
2022/11/22 08:36:22;;;;;;;6.50;5.40;;;4.50;76.90;;;;;;5013147;28;20084;-60
2022/11/22 08:38:47;;;;;;;5.70;4.88;;;4.50;76.70;;;;;;5016396;28;20036;-61
2022/11/22 08:41:13;;;;;;;5.43;4.88;;;4.50;76.50;;;;;;5019518;28;20056;-61
2022/11/22 08:43:39;;;;;;;5.63;4.85;;;4.50;76.40;;;;;;5012909;28;20042;-60
2022/11/22 08:46:05;;;;;;;6.00;5.03;;;4.40;76.20;;;;;;5016774;28;20133;-58
2022/11/22 08:48:33;;;;;;;5.53;4.75;;;4.40;76.30;;;;;;5021375;28;20033;-60
2022/11/22 08:51:02;;;;;;;5.95;5.35;;;4.40;76.40;;;;;;5016635;28;20129;-60
2022/11/22 08:53:31;;;;;;;7.00;5.60;;;4.30;76.50;;;;;;5015671;28;20033;-58
2022/11/22 08:56:02;;;;;;;7.70;6.28;;;4.30;76.60;;;;;;5017171;28;20088;-58
2022/11/22 08:58:32;;;;;;;6.15;5.50;;;4.30;76.70;;;;;;5016393;28;20768;-59
2022/11/22 09:01:04;;;;;;;6.07;5.47;;;4.30;77.00;;;;;;5007909;28;20065;-59
2022/11/22 09:03:29;;;;;;;6.85;5.70;;;4.30;77.20;;;;;;5005715;28;20029;-58
2022/11/22 09:06:03;;;;;;;7.10;6.22;;;4.40;77.40;;;;;;5016646;28;20377;-59
2022/11/22 09:08:30;;;;;;;7.43;6.15;;;4.40;77.40;;;;;;5006550;28;20176;-59
2022/11/22 09:11:00;;;;;;;7.43;6.07;;;4.50;77.10;;;;;;5009527;28;20858;-59
2022/11/22 09:13:26;;;;;;;7.13;5.50;;;4.50;76.70;;;;;;5016705;28;20109;-59
2022/11/22 09:15:52;;;;;;;7.55;5.57;;;4.50;76.60;;;;;;5014889;28;20033;-59
2022/11/22 09:18:17;;;;;;;7.93;6.13;;;4.60;76.80;;;;;;5016752;28;20025;-58
2022/11/22 09:20:43;;;;;;;6.40;5.30;;;4.60;76.50;;;;;;5019692;28;20454;-59
2022/11/22 09:23:08;;;;;;;6.65;5.85;;;4.60;76.20;;;;;;5016305;28;20037;-59
2022/11/22 09:25:34;;;;;;;6.72;5.38;;;4.60;75.70;;;;;;5002712;28;20195;-58
2022/11/22 09:28:01;;;;;;;6.47;5.40;;;4.50;75.90;;;;;;5010833;28;20064;-58
2022/11/22 09:30:28;;;;;;;6.45;5.60;;;4.50;76.20;;;;;;5012039;28;20042;-60
2022/11/22 09:32:53;;;;;;;7.13;5.97;;;4.50;76.50;;;;;;5017192;28;20038;-58
2022/11/22 09:35:19;;;;;;;6.47;4.65;;;4.60;76.50;;;;;;5008464;28;20099;-58
2022/11/22 09:37:45;;;;;;;6.60;5.85;;;4.60;76.50;;;;;;5013015;28;20477;-60
2022/11/22 09:40:11;;;;;;;7.15;6.00;;;4.60;76.40;;;;;;5012183;28;20540;-59
2022/11/22 09:42:40;;;;;;;6.47;5.55;;;4.70;76.30;;;;;;5005282;28;20029;-59
2022/11/22 09:45:28;;;;;;;6.32;5.45;;;4.70;76.20;;;;;;5001944;28;20037;-59
2022/11/22 09:48:06;;;;;;;6.03;5.10;;;4.70;76.40;;;;;;5004717;28;20085;-58
2022/11/22 09:50:32;;;;;;;6.38;5.10;;;4.80;76.00;;;;;;5003547;28;20070;-59
2022/11/22 09:53:12;;;;;;;6.72;5.47;;;4.80;75.90;;;;;;5010328;28;21178;-60
2022/11/22 09:55:45;;;;;;;7.32;5.80;;;4.80;75.90;;;;;;4998684;28;20042;-58
2022/11/22 09:58:27;;;;;;;6.28;5.07;;;4.70;75.90;;;;;;5004266;28;23351;-59
2022/11/22 10:00:57;;;;;;;6.22;5.45;;;4.70;76.00;;;;;;5006806;28;20037;-59
2022/11/22 10:03:37;;;;;;;6.47;5.50;;;4.80;76.00;;;;;;5007586;28;20163;-60
2022/11/22 10:06:10;;;;;;;8.37;6.87;;;4.80;76.00;;;;;;5013710;28;20036;-60
2022/11/22 10:08:45;;;;;;;7.95;6.30;;;4.80;75.70;;;;;;5003812;28;20034;-60
2022/11/22 10:11:48;;;;;;;7.35;6.03;;;4.70;75.40;;;;;;5016905;28;20156;-56
2022/11/22 10:14:28;;;;;;;7.45;5.25;;;4.70;75.50;;;;;;5018246;28;20112;-60
2022/11/22 10:17:19;;;;;;;6.60;5.43;;;4.70;75.40;;;;;;5009505;28;20170;-60
2022/11/22 10:20:10;;;;;;;6.35;5.18;;;4.70;75.20;;;;;;5012489;28;20835;-58
2022/11/22 10:22:39;;;;;;;6.05;5.45;;;4.60;75.10;;;;;;5011093;28;20650;-60
2022/11/22 10:25:39;;;;;;;5.50;4.95;;;4.60;75.00;;;;;;5017159;28;20029;-58
2022/11/22 10:28:41;;;;;;;7.13;5.38;;;4.60;74.80;;;;;;5016108;28;20149;-59
2022/11/22 10:31:30;;;;;;;7.60;5.68;;;4.60;75.00;;;;;;5010436;28;20038;-59
2022/11/22 10:34:21;;;;;;;6.63;5.82;;;4.50;74.70;;;;;;5012137;28;20124;-58
2022/11/22 10:36:55;;;;;;;6.30;5.60;;;4.50;74.90;;;;;;5009935;28;20025;-57
2022/11/22 10:39:55;;;;;;;8.00;6.05;;;4.40;74.90;;;;;;5010150;28;20108;-58
2022/11/22 10:42:33;;;;;;;6.85;6.13;;;4.40;74.80;;;;;;5004633;28;20611;-57
2022/11/22 10:45:22;;;;;;;7.40;6.00;;;4.40;75.00;;;;;;5007105;28;20087;-59
2022/11/22 10:48:21;;;;;;;7.65;6.18;;;4.50;75.30;;;;;;5011384;28;20114;-58
2022/11/22 10:50:56;;;;;;;7.72;5.95;;;4.50;75.10;;;;;;5013866;28;20515;-58
2022/11/22 10:53:34;;;;;;;6.38;5.60;;;4.50;75.00;;;;;;5020722;28;20049;-56
2022/11/22 11:07:40;;;;;;;;;;;;;;;;;;;;;
2022/11/22 11:10:18;;;;;;;7.25;6.43;;;4.50;75.00;;;;;;4986628;28;20045;-85
2022/11/22 11:12:58;;;;;;;7.43;6.32;;;4.50;74.70;;;;;;4981739;28;20114;-86
2022/11/22 11:15:43;;;;;;;8.07;6.32;;;4.50;74.70;;;;;;4989521;28;20027;-85
2022/11/22 11:18:26;;;;;;;6.88;6.10;;;4.50;74.90;;;;;;4984814;28;20074;-86
2022/11/22 11:20:52;;;;;;;7.25;6.30;;;4.50;75.10;;;;;;4984822;28;20057;-85
2022/11/22 11:23:18;;;;;;;9.32;6.38;;;4.50;75.30;;;;;;4981844;28;20058;-85
2022/11/22 11:25:46;;;;;;;7.43;5.80;;;4.50;75.30;;;;;;4982373;28;20061;-85
2022/11/22 11:28:17;;;;;;;7.28;6.03;;;4.60;75.30;;;;;;4983596;28;20035;-85
2022/11/22 11:31:54;;;;;;;7.78;6.03;;;4.60;75.00;;;;;;4999196;28;20042;-85
2022/11/22 11:34:29;;;;;;;7.20;6.13;;;4.60;74.90;;;;;;4985936;28;20030;-86
2022/11/22 11:37:02;;;;;;;6.93;5.88;;;4.70;74.70;;;;;;4991414;28;20069;-85
2022/11/22 11:39:30;;;;;;;7.10;5.75;;;4.70;74.70;;;;;;4985838;28;20022;-83
2022/11/22 11:41:57;;;;;;;6.85;6.10;;;4.60;74.60;;;;;;4981111;28;20069;-84
2022/11/22 11:45:29;;;;;;;7.60;6.18;;;4.60;74.00;;;;;;5052585;28;21081;-57
2022/11/22 11:47:55;;;;;;;7.18;5.72;;;4.60;74.60;;;;;;5028612;28;20125;-57
2022/11/22 11:50:30;;;;;;;7.72;5.95;;;4.60;74.80;;;;;;5030329;28;20454;-57
2022/11/22 11:53:05;;;;;;;8.43;6.40;;;4.60;74.90;;;;;;5037215;28;20041;-58
2022/11/22 11:55:35;;;;;;;7.72;6.13;;;4.60;74.80;;;;;;5032473;28;20032;-57
2022/11/22 11:58:09;;;;;;;7.45;6.30;;;4.70;75.00;;;;;;5032510;28;20030;-57
2022/11/22 12:00:38;;;;;;;6.93;5.85;;;4.70;75.00;;;;;;5033896;28;20017;-57
2022/11/22 12:03:07;;;;;;;7.60;6.28;;;4.70;74.90;;;;;;5032713;28;20491;-56
2022/11/22 12:05:33;;;;;;;7.78;6.38;;;4.70;75.00;;;;;;5028981;28;20071;-56
2022/11/22 12:08:00;;;;;;;6.93;6.22;;;4.70;74.70;;;;;;5024575;28;20025;-57
2022/11/22 12:10:48;;;;;;;7.57;6.55;;;4.70;74.70;;;;;;5018870;28;20060;-57
2022/11/22 12:13:43;;;;;;;8.15;6.50;;;4.70;74.70;;;;;;5015745;28;20143;-54
2022/11/22 12:16:21;;;;;;;7.50;6.20;;;4.70;74.50;;;;;;5021288;28;20040;-56
2022/11/22 12:18:58;;;;;;;9.13;6.63;;;4.70;74.20;;;;;;5030443;28;20111;-57
2022/11/22 12:21:45;;;;;;;7.70;6.22;;;4.70;74.30;;;;;;5034114;28;20033;-56
2022/11/22 12:24:26;;;;;;;6.78;5.88;;;4.70;74.30;;;;;;5018701;28;20037;-56
2022/11/22 12:26:54;;;;;;;8.57;6.40;;;4.70;74.30;;;;;;5018643;28;20113;-56
2022/11/22 12:29:20;;;;;;;8.45;6.75;;;4.70;74.20;;;;;;5018966;28;20030;-56
2022/11/22 12:32:10;;;;;;;8.55;6.47;;;4.70;74.20;;;;;;5019092;28;20036;-59
2022/11/22 12:34:59;;;;;;;6.53;5.50;;;4.70;74.20;;;;;;5022420;28;20444;-56
2022/11/22 12:37:35;;;;;;;7.88;6.40;;;4.70;74.00;;;;;;5032587;28;20025;-58
2022/11/22 12:40:30;;;;;;;7.50;6.55;;;4.70;74.30;;;;;;5021973;28;20084;-59
2022/11/22 12:43:01;;;;;;;7.32;5.93;;;4.70;74.40;;;;;;5022275;28;20049;-57
2022/11/22 12:45:33;;;;;;;7.85;5.97;;;4.70;74.50;;;;;;5021592;28;20120;-58
2022/11/22 12:48:05;;;;;;;8.02;6.18;;;4.70;74.30;;;;;;5016641;28;20029;-56
2022/11/22 12:50:51;;;;;;;8.70;6.20;;;4.70;74.50;;;;;;5032592;28;20025;-57
2022/11/22 12:53:33;;;;;;;10.70;8.35;;;4.70;74.20;;;;;;5022854;28;20044;-58
2022/11/22 12:56:24;;;;;;;7.95;6.28;;;4.80;74.20;;;;;;5020301;28;20129;-58
2022/11/22 12:59:10;;;;;;;8.63;6.68;;;4.70;73.90;;;;;;5016482;28;20041;-59
2022/11/22 13:01:36;;;;;;;8.95;7.20;;;4.70;73.90;;;;;;5008778;28;20041;-59
2022/11/22 13:04:11;;;;;;;7.65;6.70;;;4.60;74.00;;;;;;5007312;28;20029;-59
2022/11/22 13:07:02;;;;;;;7.85;6.65;;;4.60;74.20;;;;;;5015025;28;20022;-56
2022/11/22 13:09:32;;;;;;;8.32;6.63;;;4.60;74.00;;;;;;4997242;28;20040;-58
2022/11/22 13:12:08;;;;;;;7.55;6.43;;;4.60;74.40;;;;;;5007575;28;20081;-58
2022/11/22 13:14:38;;;;;;;7.82;6.35;;;4.60;74.40;;;;;;5009921;28;20152;-58
2022/11/22 13:17:08;;;;;;;8.15;6.00;;;4.60;74.40;;;;;;5015821;28;20143;-58
2022/11/22 13:19:45;;;;;;;7.80;6.05;;;4.70;74.40;;;;;;5008692;28;20037;-58
2022/11/22 13:22:31;;;;;;;9.25;6.10;;;4.70;74.40;;;;;;5011168;28;20086;-58
2022/11/22 13:25:26;;;;;;;7.70;6.18;;;4.70;74.70;;;;;;5007960;28;20029;-58
2022/11/22 13:27:53;;;;;;;7.70;6.07;;;4.70;74.50;;;;;;5004086;28;20676;-58
2022/11/22 13:30:22;;;;;;;7.28;5.57;;;4.70;74.20;;;;;;5009095;28;20033;-58
2022/11/22 13:33:21;;;;;;;7.65;5.93;;;4.70;74.40;;;;;;5005546;28;20029;-57
2022/11/22 13:35:47;;;;;;;6.38;5.63;;;4.80;74.20;;;;;;5009918;28;20965;-58
2022/11/22 13:38:17;;;;;;;7.82;6.43;;;4.80;74.60;;;;;;5011351;28;20037;-58
2022/11/22 13:40:49;;;;;;;8.30;7.00;;;4.80;73.90;;;;;;5008085;28;20925;-59